Knob Fork, West Virginia
Current Conditions -  °F | °C
As of 7:34 AM on Friday 28 Nov 2014 (Local Time) from KCKB Reporting Station
Overcast Overcast  
Wind Chill: 19°   Ceiling: 4500
Heat Index: 26°   Visibility: 10mi
Dew Point: 20°   Wind: 6mph
Humidity: 78%   Direction: 260°W
Pressure: 30.32"   Gusts: NA
Location:  39.6641°N, 80.5775°W
Report Text: KCKB 281234Z 26005KT 10SM SCT027 SCT031 OVC045 M03/M07 A3032 RMK AO2 T10331067
Loading
Personal Weather Stations






























Interactive Weather Map New forecast layout! Learn more

10-Day Weather Forecast

Advertisements
Track Severe Weather on mobile